Time;durP1;ratioP1;P1;durP2;ratioP2;P2;SDS_P1;SDS_P2;PMS_P1;PMS_P2;Temp;Humidity;BMP_temperature;BMP_pressure;BME280_temperature;BME280_humidity;BME280_pressure;Samples;Min_cycle;Max_cycle;Signal;HPM_P1;HPM_P2
2023/11/04 00:00:16;;;;;;;;;;;;;;;16.85;56.96;99558.16;5081253;28;936;-47
2023/11/04 00:02:41;;;;;;;;;;;;;;;16.67;56.63;99563.44;5063428;28;1051;-46
2023/11/04 00:05:07;;;;;;;;;;;;;;;16.59;56.37;99562.22;5086585;28;1978;-44
2023/11/04 00:07:33;;;;;;;;;;;;;;;16.47;55.89;99572.06;5094299;28;1129;-49
2023/11/04 00:09:59;;;;;;;;;;;;;;;16.35;56.13;99562.34;5097192;28;1086;-45
2023/11/04 00:12:24;;;;;;;;;;;;;;;16.60;56.97;99549.28;5095306;28;1018;-48
2023/11/04 00:14:50;;;;;;;;;;;;;;;17.53;56.45;99544.66;5081182;28;2512;-47
2023/11/04 00:17:15;;;;;;;;;;;;;;;16.92;57.18;99548.41;5090338;28;1062;-48
2023/11/04 00:19:41;;;;;;;;;;;;;;;16.65;57.03;99540.16;5087761;28;1217;-46
2023/11/04 00:22:07;;;;;;;;;;;;;;;16.54;56.63;99525.81;5084371;28;1215;-45
2023/11/04 00:24:32;;;;;;;;;;;;;;;16.47;56.13;99533.66;5082158;28;1065;-45
2023/11/04 00:26:59;;;;;;;;;;;;;;;17.25;57.28;99539.22;5089814;28;1987;-47
2023/11/04 00:29:24;;;;;;;;;;;;;;;17.21;57.07;99539.03;5058999;28;1142;-49
2023/11/04 00:31:50;;;;;;;;;;;;;;;16.81;56.87;99535.19;5089967;28;1015;-48
2023/11/04 00:34:15;;;;;;;;;;;;;;;16.60;56.78;99532.84;5068398;28;1093;-46
2023/11/04 00:36:41;;;;;;;;;;;;;;;16.52;56.30;99534.38;5093117;28;1014;-47
2023/11/04 00:39:09;;;;;;;;;;;;;;;16.40;56.16;99531.28;5086555;28;1172;-45
2023/11/04 00:41:35;;;;;;;;;;;;;;;16.32;55.80;99538.28;5079342;28;1116;-48
2023/11/04 00:44:01;;;;;;;;;;;;;;;16.75;57.26;99540.75;5067711;28;2340;-47
2023/11/04 00:46:26;;;;;;;;;;;;;;;17.52;56.75;99537.56;5092589;28;1914;-47
2023/11/04 00:48:52;;;;;;;;;;;;;;;16.94;57.11;99542.63;5086389;28;909;-46
2023/11/04 00:51:18;;;;;;;;;;;;;;;16.67;56.75;99538.72;5082677;28;1225;-46
2023/11/04 00:53:43;;;;;;;;;;;;;;;16.53;56.31;99546.13;5095867;28;1123;-44
2023/11/04 00:56:09;;;;;;;;;;;;;;;16.39;56.16;99549.66;5083018;28;1090;-45
2023/11/04 00:58:34;;;;;;;;;;;;;;;17.35;57.23;99551.91;5085930;28;1061;-45
2023/11/04 01:01:00;;;;;;;;;;;;;;;17.15;57.03;99534.75;5080235;28;1139;-44
2023/11/04 01:03:25;;;;;;;;;;;;;;;16.81;56.85;99546.97;5078413;28;1210;-42
2023/11/04 01:05:51;;;;;;;;;;;;;;;16.62;56.44;99538.84;5092328;28;1972;-44
2023/11/04 01:08:16;;;;;;;;;;;;;;;16.47;56.32;99537.19;5076262;28;1023;-46
2023/11/04 01:10:42;;;;;;;;;;;;;;;17.35;57.29;99544.50;5089109;28;1081;-44
2023/11/04 01:13:07;;;;;;;;;;;;;;;17.09;57.31;99558.78;5082812;28;2337;-41
2023/11/04 01:15:33;;;;;;;;;;;;;;;16.75;57.05;99559.97;5089552;28;1042;-47
2023/11/04 01:18:00;;;;;;;;;;;;;;;16.62;56.52;99558.06;5087606;28;1107;-42
2023/11/04 01:20:26;;;;;;;;;;;;;;;16.49;56.04;99567.06;5082375;28;1125;-45
2023/11/04 01:22:51;;;;;;;;;;;;;;;16.37;56.12;99564.81;5085549;28;1145;-47
2023/11/04 01:25:17;;;;;;;;;;;;;;;17.48;57.01;99580.50;5093464;28;1963;-47
2023/11/04 01:27:42;;;;;;;;;;;;;;;17.14;57.09;99577.09;5086891;28;1037;-44
2023/11/04 01:30:08;;;;;;;;;;;;;;;16.79;56.80;99570.34;5091330;28;1089;-45
2023/11/04 01:32:34;;;;;;;;;;;;;;;16.63;56.44;99575.31;5069252;28;1079;-44
2023/11/04 01:35:00;;;;;;;;;;;;;;;16.53;56.02;99568.09;5059900;28;1325;-47
2023/11/04 01:37:25;;;;;;;;;;;;;;;16.66;57.32;99566.47;5086325;28;952;-46
2023/11/04 01:39:52;;;;;;;;;;;;;;;17.48;56.54;99562.06;5064295;28;1214;-43
2023/11/04 01:42:17;;;;;;;;;;;;;;;16.90;57.09;99571.81;5087095;28;1150;-48
2023/11/04 01:44:43;;;;;;;;;;;;;;;16.61;56.38;99553.69;5071121;28;2498;-48
2023/11/04 01:47:08;;;;;;;;;;;;;;;16.47;56.51;99558.34;5084789;28;1996;-44
2023/11/04 01:49:34;;;;;;;;;;;;;;;17.09;57.29;99558.78;5072480;28;971;-44
2023/11/04 01:51:59;;;;;;;;;;;;;;;17.27;56.76;99558.97;5075802;28;1107;-44
2023/11/04 01:54:25;;;;;;;;;;;;;;;16.81;57.05;99563.44;5088811;28;1230;-46
2023/11/04 01:56:50;;;;;;;;;;;;;;;16.64;56.69;99561.28;5084634;28;1219;-44
2023/11/04 01:59:16;;;;;;;;;;;;;;;16.54;56.28;99565.03;5064495;28;1629;-47
2023/11/04 02:01:45;;;;;;;;;;;;;;;16.46;56.28;99556.72;5085354;28;889;-44
2023/11/04 02:04:11;;;;;;;;;;;;;;;17.60;56.67;99553.31;5098417;28;1411;-42
2023/11/04 02:06:36;;;;;;;;;;;;;;;17.09;57.13;99556.03;5089940;28;1957;-46
2023/11/04 02:09:02;;;;;;;;;;;;;;;16.81;56.91;99551.66;5074457;28;1270;-44
2023/11/04 02:11:28;;;;;;;;;;;;;;;16.62;56.47;99544.34;5070907;28;1034;-43
2023/11/04 02:13:55;;;;;;;;;;;;;;;16.48;56.31;99538.81;5074592;28;2292;-46
2023/11/04 02:16:21;;;;;;;;;;;;;;;16.39;56.10;99549.66;5079426;28;1039;-45
2023/11/04 02:18:46;;;;;;;;;;;;;;;17.42;56.86;99558.63;5061207;28;1289;-45
2023/11/04 02:21:12;;;;;;;;;;;;;;;17.31;56.89;99559.97;5088751;28;1110;-46
2023/11/04 02:23:37;;;;;;;;;;;;;;;16.89;57.06;99554.53;5079835;28;868;-45
2023/11/04 02:26:03;;;;;;;;;;;;;;;16.72;56.59;99557.03;5090343;28;1901;-44
2023/11/04 02:28:28;;;;;;;;;;;;;;;16.58;56.16;99560.56;5092572;28;975;-42
2023/11/04 02:30:54;;;;;;;;;;;;;;;16.47;55.79;99558.34;5088368;28;1062;-43
2023/11/04 02:33:20;;;;;;;;;;;;;;;16.73;57.14;99564.97;5080384;28;1035;-44
2023/11/04 02:35:46;;;;;;;;;;;;;;;17.58;56.60;99563.78;5098397;28;1006;-46
2023/11/04 02:38:11;;;;;;;;;;;;;;;16.95;57.22;99563.47;5098846;28;1145;-45
2023/11/04 02:40:37;;;;;;;;;;;;;;;16.72;56.86;99582.56;5098929;28;1049;-47
2023/11/04 02:43:02;;;;;;;;;;;;;;;16.60;56.13;99568.50;5084327;28;1792;-43
2023/11/04 02:45:28;;;;;;;;;;;;;;;16.49;56.18;99583.53;5089826;28;1894;-44
2023/11/04 02:47:54;;;;;;;;;;;;;;;16.41;55.50;99580.38;5074951;28;1588;-41
2023/11/04 02:50:20;;;;;;;;;;;;;;;16.36;56.29;99574.97;5060785;28;1097;-42
2023/11/04 02:52:45;;;;;;;;;;;;;;;17.53;56.77;99589.47;5094402;28;1167;-45
2023/11/04 02:55:11;;;;;;;;;;;;;;;17.05;57.26;99592.66;5098340;28;994;-45
2023/11/04 02:57:36;;;;;;;;;;;;;;;16.74;56.83;99588.53;5067092;28;1196;-45
2023/11/04 03:00:04;;;;;;;;;;;;;;;16.60;56.26;99601.44;5091109;28;1177;-42
2023/11/04 03:02:29;;;;;;;;;;;;;;;16.48;56.18;99593.72;5080189;28;1474;-46
2023/11/04 03:04:55;;;;;;;;;;;;;;;16.32;56.00;99597.81;5098621;28;1014;-44
2023/11/04 03:07:20;;;;;;;;;;;;;;;17.41;57.12;99600.97;5084981;28;1910;-46
2023/11/04 03:09:46;;;;;;;;;;;;;;;17.16;57.25;99601.50;5089406;28;1177;-45
2023/11/04 03:12:12;;;;;;;;;;;;;;;16.81;57.08;99587.34;5091773;28;1047;-45
2023/11/04 03:14:37;;;;;;;;;;;;;;;16.62;56.64;99577.25;5059052;28;2524;-43
2023/11/04 03:17:03;;;;;;;;;;;;;;;16.49;56.21;99572.56;5080126;28;1097;-43
2023/11/04 03:19:28;;;;;;;;;;;;;;;17.48;56.79;99558.53;5098093;28;1074;-45
2023/11/04 03:21:56;;;;;;;;;;;;;;;16.96;57.14;99569.75;5084713;28;1123;-43
2023/11/04 03:24:22;;;;;;;;;;;;;;;16.70;56.72;99576.53;5091090;28;1030;-43
2023/11/04 03:26:48;;;;;;;;;;;;;;;16.55;56.36;99571.34;5095308;28;1971;-45
2023/11/04 03:29:14;;;;;;;;;;;;;;;16.50;56.56;99561.28;5077757;28;1113;-46
2023/11/04 03:31:40;;;;;;;;;;;;;;;17.60;56.50;99556.84;5074906;28;1312;-45
2023/11/04 03:34:05;;;;;;;;;;;;;;;17.05;56.86;99554.22;5089252;28;1022;-43
2023/11/04 03:36:31;;;;;;;;;;;;;;;16.80;56.70;99555.50;5089208;28;983;-42
2023/11/04 03:38:56;;;;;;;;;;;;;;;16.59;56.20;99551.25;5085832;28;1118;-42
2023/11/04 03:41:22;;;;;;;;;;;;;;;16.47;56.11;99536.38;5097659;28;987;-45
2023/11/04 03:43:49;;;;;;;;;;;;;;;16.61;56.95;99526.22;5097903;28;1875;-45
2023/11/04 03:46:14;;;;;;;;;;;;;;;17.64;56.55;99540.53;5083072;28;1905;-44
2023/11/04 03:48:40;;;;;;;;;;;;;;;17.00;57.08;99549.66;5081914;28;1198;-45
2023/11/04 03:51:06;;;;;;;;;;;;;;;16.74;56.45;99544.63;5090832;28;1110;-42
2023/11/04 03:53:31;;;;;;;;;;;;;;;16.58;56.11;99554.28;5077574;28;1051;-44
2023/11/04 03:55:57;;;;;;;;;;;;;;;16.49;56.03;99561.59;5092293;28;1098;-42
2023/11/04 03:58:22;;;;;;;;;;;;;;;16.47;56.24;99556.41;5097269;28;1093;-45
2023/11/04 04:00:48;;;;;;;;;;;;;;;17.60;56.54;99558.81;5092622;28;1077;-45
2023/11/04 04:03:14;;;;;;;;;;;;;;;17.05;56.96;99549.53;5059261;28;1110;-44
2023/11/04 04:05:39;;;;;;;;;;;;;;;16.73;56.80;99544.94;5078396;28;1906;-46
2023/11/04 04:08:05;;;;;;;;;;;;;;;16.56;56.37;99546.38;5097477;28;1026;-45
2023/11/04 04:10:30;;;;;;;;;;;;;;;16.48;56.01;99532.50;5095580;28;995;-44
2023/11/04 04:12:56;;;;;;;;;;;;;;;16.36;55.89;99533.81;5081156;28;2441;-44
2023/11/04 04:15:22;;;;;;;;;;;;;;;16.47;56.82;99530.91;5083593;28;1165;-46
2023/11/04 04:17:47;;;;;;;;;;;;;;;17.67;56.63;99548.19;5096998;28;1061;-46
2023/11/04 04:20:14;;;;;;;;;;;;;;;17.15;57.17;99533.97;5096988;28;1039;-43
2023/11/04 04:22:39;;;;;;;;;;;;;;;16.82;56.93;99537.63;5089705;28;1095;-48
2023/11/04 04:25:05;;;;;;;;;;;;;;;16.63;56.48;99523.97;5086856;28;1058;-47
2023/11/04 04:27:31;;;;;;;;;;;;;;;16.52;56.38;99539.84;5096682;28;1906;-46
2023/11/04 04:29:56;;;;;;;;;;;;;;;17.23;57.27;99534.03;5096819;28;994;-47
2023/11/04 04:32:22;;;;;;;;;;;;;;;17.27;56.94;99542.47;5089357;28;1021;-44
2023/11/04 04:34:47;;;;;;;;;;;;;;;16.88;56.86;99530.09;5090203;28;1057;-44
2023/11/04 04:37:13;;;;;;;;;;;;;;;16.70;56.36;99538.09;5076489;28;1114;-47
2023/11/04 04:39:39;;;;;;;;;;;;;;;16.56;56.17;99540.03;5091268;28;1103;-46
2023/11/04 04:42:05;;;;;;;;;;;;;;;16.47;56.31;99525.41;5096372;28;1062;-47
2023/11/04 04:44:30;;;;;;;;;;;;;;;17.52;57.07;99512.81;5095229;28;2457;-44
2023/11/04 04:46:57;;;;;;;;;;;;;;;16.98;57.29;99507.94;5083863;28;1964;-44
2023/11/04 04:49:23;;;;;;;;;;;;;;;16.75;56.97;99512.50;5090360;28;1002;-45
2023/11/04 04:51:48;;;;;;;;;;;;;;;16.55;56.74;99532.91;5082542;28;1198;-49
2023/11/04 04:54:14;;;;;;;;;;;;;;;16.52;56.08;99530.78;5082608;28;1014;-46
2023/11/04 04:56:40;;;;;;;;;;;;;;;16.75;57.62;99521.56;5090988;28;1034;-42
2023/11/04 04:59:05;;;;;;;;;;;;;;;17.71;57.26;99507.13;5083386;28;968;-46
2023/11/04 05:01:31;;;;;;;;;;;;;;;17.16;57.52;99519.91;5090196;28;1216;-46
2023/11/04 05:03:56;;;;;;;;;;;;;;;16.97;57.44;99511.00;5088464;28;1061;-48
2023/11/04 05:06:22;;;;;;;;;;;;;;;16.88;57.18;99535.59;5076694;28;1972;-47
2023/11/04 05:08:47;;;;;;;;;;;;;;;16.82;56.89;99509.38;5088634;28;1093;-46
2023/11/04 05:11:13;;;;;;;;;;;;;;;16.70;56.77;99513.41;5090276;28;1034;-47
2023/11/04 05:13:38;;;;;;;;;;;;;;;17.16;59.10;99508.13;5089062;28;1872;-45
2023/11/04 05:16:04;;;;;;;;;;;;;;;17.47;59.00;99521.16;5076404;28;1060;-49
2023/11/04 05:18:30;;;;;;;;;;;;;;;17.00;58.60;99524.94;5076196;28;1010;-50
2023/11/04 05:20:58;;;;;;;;;;;;;;;16.74;57.98;99538.31;5075963;28;1139;-46
2023/11/04 05:23:24;;;;;;;;;;;;;;;16.65;57.26;99546.47;5091988;28;1126;-46
2023/11/04 05:25:50;;;;;;;;;;;;;;;16.51;56.87;99540.97;5082378;28;1979;-45
2023/11/04 05:28:18;;;;;;;;;;;;;;;16.46;56.64;99534.75;5096107;28;1026;-47
2023/11/04 05:30:43;;;;;;;;;;;;;;;17.36;59.11;99535.16;5088929;28;1098;-42
2023/11/04 05:33:09;;;;;;;;;;;;;;;17.03;60.16;99526.25;5089883;28;1031;-47
2023/11/04 05:35:35;;;;;;;;;;;;;;;17.33;57.23;99540.44;5093766;28;1275;-49
2023/11/04 05:38:00;;;;;;;;;;;;;;;16.96;54.63;99534.06;5093285;28;986;-43
2023/11/04 05:40:28;;;;;;;;;;;;;;;16.90;53.39;99536.09;5083171;28;1435;-46
2023/11/04 05:42:57;;;;;;;;;;;;;;;17.12;54.35;99540.88;5079380;28;1869;-45
2023/11/04 05:45:24;;;;;;;;;;;;;;;16.86;52.40;99546.06;5101487;28;1913;-43
2023/11/04 05:47:49;;;;;;;;;;;;;;;17.12;52.57;99531.84;5093575;28;971;-47
2023/11/04 05:50:15;;;;;;;;;;;;;;;17.47;54.73;99541.22;5090395;28;879;-47
2023/11/04 05:52:42;;;;;;;;;;;;;;;17.14;52.56;99546.88;5094598;28;1595;-48
2023/11/04 05:55:08;;;;;;;;;;;;;;;16.92;51.09;99564.09;5097568;28;1162;-48
2023/11/04 05:57:34;;;;;;;;;;;;;;;16.83;50.04;99563.13;5097792;28;1069;-47
2023/11/04 06:00:05;;;;;;;;;;;;;;;16.76;49.21;99555.31;5079356;28;1113;-46
2023/11/04 06:02:31;;;;;;;;;;;;;;;16.98;50.46;99562.06;5087408;28;1045;-44
2023/11/04 06:04:57;;;;;;;;;;;;;;;17.11;51.87;99583.22;5088443;28;1090;-48
2023/11/04 06:07:23;;;;;;;;;;;;;;;16.97;50.22;99576.88;5086109;28;1895;-45
2023/11/04 06:09:48;;;;;;;;;;;;;;;16.86;49.23;99570.78;5099903;28;1030;-47
2023/11/04 06:12:14;;;;;;;;;;;;;;;17.82;52.50;99573.69;5083706;28;1177;-45
2023/11/04 06:14:40;;;;;;;;;;;;;;;17.27;51.42;99564.47;5080896;28;2681;-46
2023/11/04 06:17:06;;;;;;;;;;;;;;;17.01;49.93;99550.44;5081570;28;1090;-46
2023/11/04 06:19:31;;;;;;;;;;;;;;;16.96;48.78;99542.31;5090165;28;1046;-50
2023/11/04 06:21:57;;;;;;;;;;;;;;;16.79;48.17;99535.50;5081299;28;1415;-44
2023/11/04 06:24:23;;;;;;;;;;;;;;;16.72;47.65;99529.59;5098328;28;1006;-46
2023/11/04 06:26:48;;;;;;;;;;;;;;;17.50;50.80;99542.53;5093295;28;1984;-48
2023/11/04 06:29:16;;;;;;;;;;;;;;;17.13;50.84;99537.00;5087482;28;1050;-44
2023/11/04 06:31:42;;;;;;;;;;;;;;;17.05;49.36;99545.97;5096937;28;1037;-46
2023/11/04 06:34:07;;;;;;;;;;;;;;;16.89;48.34;99537.25;5088206;28;1094;-47
2023/11/04 06:36:33;;;;;;;;;;;;;;;17.38;49.87;99524.66;5085652;28;1087;-47
2023/11/04 06:38:58;;;;;;;;;;;;;;;17.19;50.64;99518.47;5086927;28;831;-49
2023/11/04 06:41:24;;;;;;;;;;;;;;;16.96;49.44;99499.19;5081220;28;1032;-48
2023/11/04 06:43:51;;;;;;;;;;;;;;;16.94;48.28;99495.94;5094651;28;1858;-45
2023/11/04 06:46:16;;;;;;;;;;;;;;;16.81;47.76;99488.50;5098757;28;1909;-44
2023/11/04 06:48:42;;;;;;;;;;;;;;;17.02;48.49;99516.38;5098741;28;1061;-47
2023/11/04 06:51:10;;;;;;;;;;;;;;;17.26;49.41;99529.88;5092809;28;1138;-43
2023/11/04 06:53:36;;;;;;;;;;;;;;;16.89;48.66;99516.09;5091570;28;1003;-50
2023/11/04 06:56:02;;;;;;;;;;;;;;;16.89;47.85;99516.09;5085232;28;1404;-45
2023/11/04 06:58:28;;;;;;;;;;;;;;;16.74;47.29;99519.91;5092989;28;1126;-43
2023/11/04 07:00:55;;;;;;;;;;;;;;;17.37;48.85;99523.00;5081112;28;1079;-49
2023/11/04 07:03:21;;;;;;;;;;;;;;;17.05;48.40;99508.31;5080412;28;845;-45
2023/11/04 07:05:46;;;;;;;;;;;;;;;16.81;47.77;99503.03;5097572;28;1905;-48
2023/11/04 07:08:14;;;;;;;;;;;;;;;17.56;49.40;99492.63;5085209;28;1098;-49
2023/11/04 07:10:42;;;;;;;;;;;;;;;17.41;49.66;99477.31;5092036;28;1012;-48
2023/11/04 07:13:13;;;;;;;;;;;;;;;17.07;48.82;99475.88;5090700;28;2270;-47
2023/11/04 07:15:40;;;;;;;;;;;;;;;16.89;48.02;99485.09;5088783;28;1320;-50
2023/11/04 07:18:07;;;;;;;;;;;;;;;16.75;47.55;99469.41;5098199;28;1038;-46
2023/11/04 07:20:35;;;;;;;;;;;;;;;16.69;47.00;99472.53;5095791;28;1216;-50
2023/11/04 07:23:01;;;;;;;;;;;;;;;16.65;46.80;99472.34;5090370;28;1095;-50
2023/11/04 07:25:27;;;;;;;;;;;;;;;17.93;49.50;99481.59;5082133;28;1898;-45
2023/11/04 07:27:53;;;;;;;;;;;;;;;17.20;49.85;99495.41;5088606;28;1315;-49
2023/11/04 07:30:19;;;;;;;;;;;;;;;17.02;48.78;99486.97;5092360;28;1081;-47
2023/11/04 07:32:45;;;;;;;;;;;;;;;16.99;47.55;99498.59;5098094;28;899;-45
2023/11/04 07:35:11;;;;;;;;;;;;;;;16.91;47.11;99493.81;5093880;28;1134;-48
2023/11/04 07:37:37;;;;;;;;;;;;;;;16.73;47.14;99485.38;5088014;28;1023;-46
2023/11/04 07:40:03;;;;;;;;;;;;;;;17.17;47.75;99479.53;5083569;28;1038;-46
2023/11/04 07:42:29;;;;;;;;;;;;;;;17.64;49.70;99471.81;5097656;28;1101;-44
2023/11/04 07:44:54;;;;;;;;;;;;;;;17.14;49.29;99466.41;5083531;28;2211;-43
2023/11/04 07:47:20;;;;;;;;;;;;;;;17.10;48.26;99458.78;5097421;28;1914;-47
2023/11/04 07:49:45;;;;;;;;;;;;;;;16.88;47.67;99467.78;5093262;28;1331;-49
2023/11/04 07:52:12;;;;;;;;;;;;;;;17.12;48.01;99469.47;5085763;28;1049;-47
2023/11/04 07:54:38;;;;;;;;;;;;;;;17.42;49.21;99465.19;5097117;28;1227;-47
2023/11/04 07:57:04;;;;;;;;;;;;;;;17.14;48.67;99471.91;5094617;28;1305;-48
2023/11/04 07:59:30;;;;;;;;;;;;;;;17.05;47.52;99463.59;5077293;28;1205;-45
2023/11/04 08:01:55;;;;;;;;;;;;;;;16.95;47.11;99463.81;5085411;28;1237;-48
2023/11/04 08:04:22;;;;;;;;;;;;;;;16.91;46.56;99463.59;5096893;28;1169;-46
2023/11/04 08:06:48;;;;;;;;;;;;;;;17.35;48.45;99453.84;5090822;28;1897;-48
2023/11/04 08:09:13;;;;;;;;;;;;;;;17.05;48.14;99461.63;5076877;28;1117;-50
2023/11/04 08:11:39;;;;;;;;;;;;;;;16.73;47.78;99457.09;5096521;28;1082;-46
2023/11/04 08:14:04;;;;;;;;;;;;;;;16.90;46.62;99461.97;5084290;28;1823;-47
2023/11/04 08:16:30;;;;;;;;;;;;;;;16.71;46.48;99443.69;5083498;28;1027;-50
2023/11/04 08:18:55;;;;;;;;;;;;;;;17.52;48.46;99424.88;5096698;28;1106;-48
2023/11/04 08:21:22;;;;;;;;;;;;;;;17.10;48.32;99422.28;5090552;28;1002;-47
2023/11/04 08:23:48;;;;;;;;;;;;;;;16.96;47.82;99416.81;5085894;28;1046;-48
2023/11/04 08:26:13;;;;;;;;;;;;;;;16.89;46.86;99430.97;5063864;28;1910;-48
2023/11/04 08:28:39;;;;;;;;;;;;;;;16.82;46.63;99438.78;5062803;28;1014;-48
2023/11/04 08:31:04;;;;;;;;;;;;;;;17.82;48.43;99430.72;5084229;28;1312;-47
2023/11/04 08:33:31;;;;;;;;;;;;;;;17.18;49.08;99429.78;5099712;28;1312;-47
2023/11/04 08:35:57;;;;;;;;;;;;;;;17.09;48.19;99429.69;5097962;28;1070;-47
2023/11/04 08:38:23;;;;;;;;;;;;;;;16.90;47.59;99429.84;5095820;28;1097;-47
2023/11/04 08:40:50;;;;;;;;;;;;;;;16.87;46.93;99435.94;5088715;28;993;-46
2023/11/04 08:43:16;;;;;;;;;;;;;;;17.34;47.74;99426.69;5090640;28;2399;-50
2023/11/04 08:45:41;;;;;;;;;;;;;;;17.38;49.30;99424.94;5093529;28;1902;-47
2023/11/04 08:48:07;;;;;;;;;;;;;;;17.15;48.34;99418.59;5077508;28;1065;-46
2023/11/04 08:50:32;;;;;;;;;;;;;;;16.86;48.04;99417.84;5078937;28;1090;-49
2023/11/04 08:52:58;;;;;;;;;;;;;;;16.90;47.05;99429.84;5087918;28;1457;-45
2023/11/04 08:55:23;;;;;;;;;;;;;;;16.86;46.87;99419.78;5096532;28;1101;-52
2023/11/04 08:57:49;;;;;;;;;;;;;;;18.03;44.15;99418.06;5086667;28;1817;-47
2023/11/04 09:00:15;;;;;;;;;;;;;;;18.39;45.96;99394.25;5080146;28;2288;-47
2023/11/04 09:02:41;;;;;;;;;;;;;;;15.77;54.99;99395.56;5087771;28;1783;-44
2023/11/04 09:05:06;;;;;;;;;;;;;;;16.87;49.93;99396.66;5086446;28;2671;-48
2023/11/04 09:07:33;;;;;;;;;;;;;;;16.92;48.59;99382.88;5086501;28;2125;-46
2023/11/04 09:09:59;;;;;;;;;;;;;;;16.83;48.02;99371.78;5083910;28;1837;-45
2023/11/04 09:12:24;;;;;;;;;;;;;;;16.88;47.09;99360.69;5082816;28;2028;-45
2023/11/04 09:14:50;;;;;;;;;;;;;;;16.81;47.08;99354.78;5084597;28;1838;-44
2023/11/04 09:17:16;;;;;;;;;;;;;;;17.57;49.31;99343.09;5076031;28;2307;-47
2023/11/04 09:19:42;;;;;;;;;;;;;;;17.24;48.72;99337.06;5076650;28;1105;-44
2023/11/04 09:22:08;;;;;;;;;;;;;;;17.07;48.13;99341.31;5087993;28;1186;-45
2023/11/04 09:24:34;;;;;;;;;;;;;;;17.00;47.34;99332.69;5088819;28;1174;-45
2023/11/04 09:26:59;;;;;;;;;;;;;;;16.85;47.18;99311.88;5082958;28;1910;-48
2023/11/04 09:29:25;;;;;;;;;;;;;;;16.83;46.68;99303.16;5081816;28;1212;-45
2023/11/04 09:31:51;;;;;;;;;;;;;;;16.84;46.41;99295.72;5089294;28;1042;-47
2023/11/04 09:34:16;;;;;;;;;;;;;;;16.73;46.39;99295.97;5088334;28;1212;-43
2023/11/04 09:36:44;;;;;;;;;;;;;;;17.16;46.73;99272.69;5089473;28;1145;-44
2023/11/04 09:39:09;;;;;;;;;;;;;;;17.33;48.81;99266.50;5092990;28;1192;-46
2023/11/04 09:41:36;;;;;;;;;;;;;;;17.13;48.14;99250.56;5089289;28;982;-47
2023/11/04 09:44:03;;;;;;;;;;;;;;;17.00;47.49;99252.25;5075487;28;1051;-44
2023/11/04 09:46:28;;;;;;;;;;;;;;;16.85;46.87;99251.47;5076729;28;2532;-43
2023/11/04 09:48:54;;;;;;;;;;;;;;;16.85;46.67;99245.19;5077546;28;1053;-50
2023/11/04 09:51:20;;;;;;;;;;;;;;;16.75;46.54;99238.81;5093877;28;1061;-46
2023/11/04 09:53:49;;;;;;;;;;;;;;;16.81;46.01;99241.44;5087416;28;1064;-46
2023/11/04 09:56:15;;;;;;;;;;;;;;;16.76;46.01;99223.19;5057667;28;1453;-44
2023/11/04 09:58:40;;;;;;;;;;;;;;;17.69;48.47;99220.75;5084077;28;1098;-43
2023/11/04 10:01:06;;;;;;;;;;;;;;;17.18;49.81;99221.03;5095164;28;1145;-42
2023/11/04 10:03:31;;;;;;;;;;;;;;;17.09;48.67;99218.22;5090427;28;1182;-47
2023/11/04 10:05:57;;;;;;;;;;;;;;;17.00;47.64;99206.38;5079696;28;1905;-45
2023/11/04 10:08:23;;;;;;;;;;;;;;;16.86;47.34;99198.19;5075613;28;1074;-44
2023/11/04 10:10:49;;;;;;;;;;;;;;;16.84;47.00;99199.63;5089817;28;1186;-48
2023/11/04 10:13:16;;;;;;;;;;;;;;;17.00;47.29;99191.81;5092201;28;1223;-44
2023/11/04 10:15:41;;;;;;;;;;;;;;;17.48;49.34;99198.53;5093256;28;2004;-44
2023/11/04 10:18:07;;;;;;;;;;;;;;;17.13;48.60;99179.94;5091375;28;1006;-45
2023/11/04 10:20:32;;;;;;;;;;;;;;;16.96;47.83;99183.44;5085684;28;1045;-46
2023/11/04 10:22:58;;;;;;;;;;;;;;;16.85;47.34;99184.78;5064295;28;1181;-47
2023/11/04 10:25:24;;;;;;;;;;;;;;;16.80;46.90;99176.69;5087617;28;1914;-48
2023/11/04 10:27:49;;;;;;;;;;;;;;;16.81;46.36;99170.06;5082780;28;1137;-50
2023/11/04 10:30:15;;;;;;;;;;;;;;;16.82;45.96;99174.44;5091223;28;1043;-47
2023/11/04 10:32:40;;;;;;;;;;;;;;;16.70;45.85;99178.53;5092998;28;1134;-46
2023/11/04 10:35:10;;;;;;;;;;;;;;;16.63;45.49;99180.94;5080768;28;1057;-45
2023/11/04 10:37:36;;;;;;;;;;;;;;;17.73;48.59;99164.78;5097729;28;1085;-46
2023/11/04 10:40:05;;;;;;;;;;;;;;;17.17;48.62;99158.16;5080347;28;999;-47
2023/11/04 10:42:31;;;;;;;;;;;;;;;16.98;47.93;99139.97;5080286;28;1085;-45
2023/11/04 10:44:57;;;;;;;;;;;;;;;16.85;47.04;99138.91;5090417;28;1133;-47
2023/11/04 10:47:31;;;;;;;;;;;;;;;16.78;46.58;99124.84;5080385;28;2633;-49
2023/11/04 10:49:56;;;;;;;;;;;;;;;16.70;46.35;99117.38;5088711;28;1021;-51
2023/11/04 10:52:24;;;;;;;;;;;;;;;16.86;45.50;99095.81;5090596;28;1054;-48
2023/11/04 10:54:54;;;;;;;;;;;;;;;17.56;47.62;99085.88;5087835;28;1205;-47
2023/11/04 10:57:25;;;;;;;;;;;;;;;17.20;48.58;99064.16;5092239;28;1083;-44
2023/11/04 11:00:19;;;;;;;;;;;;;;;16.90;47.88;99078.44;5077963;28;1213;-42
2023/11/04 11:02:45;;;;;;;;;;;;;;;16.89;47.01;99081.50;5076126;28;1959;-43
2023/11/04 11:05:11;;;;;;;;;;;;;;;17.65;48.79;99074.88;5090989;28;1094;-48
2023/11/04 11:07:40;;;;;;;;;;;;;;;17.22;48.22;99059.94;5084685;28;1972;-47
2023/11/04 11:10:09;;;;;;;;;;;;;;;17.04;47.65;99045.38;5098303;28;1101;-42
2023/11/04 11:12:37;;;;;;;;;;;;;;;16.95;46.83;99063.75;5079557;28;1147;-48
2023/11/04 11:15:03;;;;;;;;;;;;;;;16.88;46.66;99049.63;5089895;28;2407;-46
2023/11/04 11:17:32;;;;;;;;;;;;;;;16.76;46.16;99026.34;5079911;28;1026;-47
2023/11/04 11:19:57;;;;;;;;;;;;;;;16.81;45.95;99005.38;5098025;28;1101;-46
2023/11/04 11:22:23;;;;;;;;;;;;;;;16.70;45.93;98991.13;5083760;28;1285;-45
2023/11/04 11:24:52;;;;;;;;;;;;;;;17.56;48.74;98988.88;5102713;28;1110;-46
2023/11/04 11:27:17;;;;;;;;;;;;;;;17.17;48.37;99007.09;5080781;28;2222;-47
2023/11/04 11:29:46;;;;;;;;;;;;;;;16.92;47.88;99003.97;5084797;28;1316;-46
2023/11/04 11:32:11;;;;;;;;;;;;;;;16.89;47.35;98991.69;5089671;28;1501;-45
2023/11/04 11:34:47;;;;;;;;;;;;;;;16.89;46.90;98999.13;5091156;28;1050;-43
2023/11/04 11:37:12;;;;;;;;;;;;;;;16.75;46.50;98994.53;5076726;28;1093;-49
2023/11/04 11:39:37;;;;;;;;;;;;;;;16.72;45.96;99005.34;5091748;28;1102;-47
2023/11/04 11:42:03;;;;;;;;;;;;;;;16.75;45.82;99016.47;5078895;28;1051;-43
2023/11/04 11:44:29;;;;;;;;;;;;;;;17.02;47.16;99022.88;5083183;28;1035;-48
2023/11/04 11:46:54;;;;;;;;;;;;;;;17.46;49.14;99031.22;5090849;28;2616;-44
2023/11/04 11:49:20;;;;;;;;;;;;;;;17.17;48.68;99031.84;5077269;28;1071;-44
2023/11/04 11:51:45;;;;;;;;;;;;;;;17.02;47.56;99075.06;5074018;28;1078;-49
2023/11/04 11:54:12;;;;;;;;;;;;;;;16.98;47.22;99093.31;5078389;28;1249;-46
2023/11/04 11:56:41;;;;;;;;;;;;;;;16.87;46.54;99089.19;5092879;28;1055;-44
2023/11/04 11:59:06;;;;;;;;;;;;;;;16.83;46.06;99089.03;5097206;28;1042;-44
2023/11/04 12:01:33;;;;;;;;;;;;;;;16.79;45.96;99103.69;5092489;28;1081;-45
2023/11/04 12:04:01;;;;;;;;;;;;;;;16.61;45.88;99098.13;5097135;28;1081;-46
2023/11/04 12:06:30;;;;;;;;;;;;;;;17.30;47.90;99143.50;5059127;28;1967;-45
2023/11/04 12:08:56;;;;;;;;;;;;;;;16.89;48.13;99257.19;5089108;28;1055;-47
2023/11/04 12:11:23;;;;;;;;;;;;;;;16.88;47.20;99359.88;5096523;28;1034;-46
2023/11/04 12:13:49;;;;;;;;;;;;;;;16.91;46.46;99367.50;5096939;28;1125;-50
2023/11/04 12:16:15;;;;;;;;;;;;;;;17.30;47.35;99357.78;5075909;28;1823;-45
2023/11/04 12:18:40;;;;;;;;;;;;;;;17.82;49.70;99298.72;5086607;28;1122;-44
2023/11/04 12:21:10;;;;;;;;;;;;;;;17.19;48.96;99312.47;5092928;28;1077;-44
2023/11/04 12:23:35;;;;;;;;;;;;;;;17.10;47.67;99302.22;5069137;28;1037;-43
2023/11/04 12:26:01;;;;;;;;;;;;;;;16.91;47.10;99282.41;5076483;28;1902;-46
2023/11/04 12:28:27;;;;;;;;;;;;;;;16.99;46.22;99289.09;5084938;28;1142;-48
2023/11/04 12:31:02;;;;;;;;;;;;;;;17.22;48.02;99267.88;5090018;28;1113;-47
2023/11/04 12:33:28;;;;;;;;;;;;;;;17.47;49.71;99350.78;5087062;28;1303;-43
2023/11/04 12:36:00;;;;;;;;;;;;;;;17.21;48.66;99387.16;5086772;28;1165;-47
2023/11/04 12:38:26;;;;;;;;;;;;;;;17.10;47.26;99395.63;5069173;28;1248;-46
2023/11/04 12:40:52;;;;;;;;;;;;;;;16.91;46.88;99397.72;5096300;28;1169;-47
2023/11/04 12:43:17;;;;;;;;;;;;;;;16.99;45.66;99396.19;5082683;28;1358;-44
2023/11/04 12:45:46;;;;;;;;;;;;;;;16.78;45.94;99437.78;5086693;28;1910;-46
2023/11/04 12:48:12;;;;;;;;;;;;;;;16.82;45.19;99389.38;5089114;28;1081;-44
2023/11/04 12:50:37;;;;;;;;;;;;;;;17.31;47.05;99334.69;5084585;28;1093;-45